createdAt,value
2018-07-20T00:01:51.191Z,5.80
2018-07-20T00:04:20.093Z,5.50
2018-07-20T00:06:48.944Z,6.10
2018-07-20T00:09:17.750Z,5.93
2018-07-20T00:11:46.580Z,5.77
2018-07-20T00:14:15.491Z,6.00
2018-07-20T00:16:44.405Z,5.70
2018-07-20T00:19:13.278Z,5.90
2018-07-20T00:21:42.080Z,6.17
2018-07-20T00:24:10.861Z,5.77
2018-07-20T00:26:39.657Z,6.03
2018-07-20T00:29:08.440Z,6.37
2018-07-20T00:31:37.233Z,5.87
2018-07-20T00:34:06.092Z,5.83
2018-07-20T00:36:34.968Z,5.87
2018-07-20T00:39:04.248Z,5.90
2018-07-20T00:41:33.109Z,6.07
2018-07-20T00:44:01.997Z,5.50
2018-07-20T00:46:30.863Z,5.87
2018-07-20T00:48:59.705Z,6.17
2018-07-20T00:51:28.540Z,6.07
2018-07-20T00:53:57.323Z,5.73
2018-07-20T00:56:26.152Z,5.90
2018-07-20T00:58:55.033Z,5.57
2018-07-20T01:01:23.855Z,5.90
2018-07-20T01:03:52.705Z,5.73
2018-07-20T01:06:21.683Z,5.77
2018-07-20T01:08:50.515Z,5.97
2018-07-20T01:11:19.465Z,5.23
2018-07-20T01:13:48.307Z,5.57
2018-07-20T01:16:17.269Z,6.23
2018-07-20T01:18:46.164Z,5.97
2018-07-20T01:21:15.013Z,5.57
2018-07-20T01:23:43.847Z,6.10
2018-07-20T01:26:12.711Z,5.70
2018-07-20T01:28:41.545Z,5.87
2018-07-20T01:31:10.339Z,5.50
2018-07-20T01:33:39.240Z,5.50
2018-07-20T01:36:08.260Z,5.77
2018-07-20T01:38:37.080Z,6.03
2018-07-20T01:41:06.005Z,5.73
2018-07-20T01:43:34.898Z,6.13
2018-07-20T01:46:03.741Z,5.60
2018-07-20T01:48:32.610Z,5.67
2018-07-20T01:51:01.429Z,5.23
2018-07-20T01:53:30.236Z,5.87
2018-07-20T01:55:59.096Z,5.97
2018-07-20T01:58:27.881Z,5.70
2018-07-20T02:00:56.814Z,5.83
2018-07-20T02:03:25.704Z,5.50
2018-07-20T02:05:54.544Z,5.90
2018-07-20T02:08:23.358Z,6.50
2018-07-20T02:10:58.360Z,6.37
2018-07-20T02:13:27.249Z,5.90
2018-07-20T02:15:56.336Z,6.07
2018-07-20T02:18:25.293Z,6.60
2018-07-20T02:20:54.163Z,6.23
2018-07-20T02:23:23.896Z,6.07
2018-07-20T02:25:53.163Z,5.93
2018-07-20T02:28:21.982Z,6.40
2018-07-20T02:30:50.839Z,6.37
2018-07-20T02:33:19.719Z,6.47
2018-07-20T02:35:48.519Z,6.30
2018-07-20T02:38:17.435Z,6.10
2018-07-20T02:40:46.227Z,5.80
2018-07-20T02:43:15.106Z,6.10
2018-07-20T02:45:43.908Z,6.27
2018-07-20T02:48:12.791Z,5.60
2018-07-20T02:50:41.629Z,6.30
2018-07-20T02:53:10.449Z,5.37
2018-07-20T02:55:39.386Z,6.00
2018-07-20T02:58:08.187Z,5.73
2018-07-20T03:00:36.988Z,5.73
2018-07-20T03:03:05.855Z,6.70
2018-07-20T03:05:34.705Z,5.20
2018-07-20T03:08:03.589Z,6.00
2018-07-20T03:10:32.509Z,6.50
2018-07-20T03:13:01.406Z,5.87
2018-07-20T03:15:30.237Z,5.80
2018-07-20T03:17:59.117Z,5.70
2018-07-20T03:20:27.987Z,6.10
2018-07-20T03:22:56.843Z,6.20
2018-07-20T03:25:25.706Z,6.33
2018-07-20T03:27:55.225Z,5.90
2018-07-20T03:30:24.164Z,6.00
2018-07-20T03:32:53.206Z,6.83
2018-07-20T03:35:22.000Z,6.37
2018-07-20T03:37:50.853Z,6.63
2018-07-20T03:40:19.684Z,6.63
2018-07-20T03:42:48.561Z,6.67
2018-07-20T03:45:17.391Z,6.37
2018-07-20T03:47:46.242Z,6.43
2018-07-20T03:50:15.088Z,5.40
2018-07-20T03:52:43.915Z,5.60
2018-07-20T03:55:12.770Z,5.83
2018-07-20T03:57:41.603Z,5.40
2018-07-20T04:00:10.526Z,6.13
2018-07-20T04:02:39.417Z,6.00
2018-07-20T04:05:08.334Z,5.70
2018-07-20T04:07:37.177Z,4.93
2018-07-20T04:10:06.289Z,4.77
2018-07-20T04:12:35.133Z,4.80
2018-07-20T04:15:04.063Z,4.13
2018-07-20T04:17:39.254Z,4.73
2018-07-20T04:20:08.220Z,4.57
2018-07-20T04:22:37.051Z,5.17
2018-07-20T04:25:06.213Z,6.00
2018-07-20T04:27:35.073Z,5.90
2018-07-20T04:30:04.210Z,7.40
2018-07-20T04:32:33.064Z,6.80
2018-07-20T04:35:01.897Z,7.10
2018-07-20T04:37:30.705Z,6.73
2018-07-20T04:39:59.562Z,7.13
2018-07-20T04:42:28.338Z,6.83
2018-07-20T04:44:57.126Z,6.90
2018-07-20T04:47:25.952Z,6.93
2018-07-20T04:49:54.806Z,7.00
2018-07-20T04:52:23.617Z,6.90
2018-07-20T04:54:52.447Z,7.27
2018-07-20T04:57:21.280Z,7.10
2018-07-20T04:59:50.133Z,7.30
2018-07-20T05:02:19.124Z,7.43
2018-07-20T05:04:48.039Z,7.43
2018-07-20T05:07:16.848Z,7.60
2018-07-20T05:09:45.761Z,7.73
2018-07-20T05:12:14.581Z,7.97
2018-07-20T05:14:43.441Z,7.80
2018-07-20T05:17:12.401Z,8.63
2018-07-20T05:19:41.300Z,7.67
2018-07-20T05:22:10.127Z,7.77
2018-07-20T05:24:39.052Z,8.10
2018-07-20T05:27:07.905Z,8.30
2018-07-20T05:29:37.522Z,8.53
2018-07-20T05:32:06.577Z,8.03
2018-07-20T05:34:35.466Z,8.63
2018-07-20T05:37:04.398Z,8.47
2018-07-20T05:39:33.266Z,8.40
2018-07-20T05:42:02.208Z,7.90
2018-07-20T05:44:31.048Z,7.73
2018-07-20T05:46:59.959Z,7.73
2018-07-20T05:49:28.862Z,8.87
2018-07-20T05:51:57.736Z,8.10
2018-07-20T05:54:26.675Z,7.97
2018-07-20T05:56:55.579Z,8.90
2018-07-20T05:59:24.436Z,8.47
2018-07-20T06:01:53.303Z,8.60
2018-07-20T06:04:22.114Z,8.43
2018-07-20T06:06:50.935Z,9.03
2018-07-20T06:09:19.840Z,8.90
2018-07-20T06:11:48.638Z,8.67
2018-07-20T06:14:17.559Z,9.53
2018-07-20T06:16:46.376Z,8.53
2018-07-20T06:19:15.169Z,8.70
2018-07-20T06:21:44.153Z,8.83
2018-07-20T06:24:13.011Z,8.33
2018-07-20T06:26:41.790Z,9.77
2018-07-20T06:29:10.540Z,9.20
2018-07-20T06:31:39.388Z,9.03
2018-07-20T06:34:08.234Z,8.80
2018-07-20T06:36:37.027Z,8.83
2018-07-20T06:39:08.393Z,8.83
2018-07-20T06:41:37.309Z,9.53
2018-07-20T06:44:06.178Z,9.20
2018-07-20T06:46:35.581Z,8.43
2018-07-20T06:49:04.478Z,9.27
2018-07-20T06:51:33.377Z,9.90
2018-07-20T06:54:02.194Z,9.43
2018-07-20T06:56:31.037Z,9.97
2018-07-20T06:58:59.866Z,9.70
2018-07-20T07:01:28.696Z,9.10
2018-07-20T07:03:57.569Z,9.20
2018-07-20T07:06:26.388Z,9.83
2018-07-20T07:08:55.222Z,9.93
2018-07-20T07:11:24.244Z,9.93
2018-07-20T07:13:53.151Z,9.80
2018-07-20T07:16:22.070Z,10.13
2018-07-20T07:18:50.935Z,10.30
2018-07-20T07:21:19.741Z,9.70
2018-07-20T07:23:48.669Z,9.30
2018-07-20T07:26:17.522Z,9.87
2018-07-20T07:28:46.415Z,10.10
2018-07-20T07:31:16.157Z,9.47
2018-07-20T07:33:45.019Z,9.77
2018-07-20T07:36:13.855Z,10.13
2018-07-20T07:38:42.736Z,10.73
2018-07-20T07:41:11.624Z,9.60
2018-07-20T07:43:40.457Z,8.37
2018-07-20T07:46:09.294Z,8.43
2018-07-20T07:48:38.139Z,8.60
2018-07-20T07:51:07.068Z,9.47
2018-07-20T07:53:36.148Z,8.37
2018-07-20T07:56:05.077Z,8.80
2018-07-20T07:58:34.046Z,9.27
2018-07-20T08:01:03.080Z,8.67
2018-07-20T08:03:32.011Z,8.80
2018-07-20T08:06:00.962Z,8.33
2018-07-20T08:08:29.933Z,7.90
2018-07-20T08:10:58.911Z,8.67
2018-07-20T08:13:27.829Z,8.30
2018-07-20T08:15:56.734Z,8.77
2018-07-20T08:18:25.608Z,9.00
2018-07-20T08:20:54.521Z,8.20
2018-07-20T08:23:23.466Z,8.00
2018-07-20T08:25:52.334Z,8.17
2018-07-20T08:28:21.251Z,9.27
2018-07-20T08:30:50.357Z,7.40
2018-07-20T08:33:19.273Z,7.83
2018-07-20T08:35:48.216Z,7.07
2018-07-20T08:38:17.106Z,7.63
2018-07-20T08:40:46.057Z,7.40
2018-07-20T08:43:14.955Z,7.50
2018-07-20T08:45:43.927Z,7.87
2018-07-20T08:48:12.787Z,7.30
2018-07-20T08:50:42.205Z,7.10
2018-07-20T08:53:11.220Z,6.77
2018-07-20T08:55:40.127Z,6.57
2018-07-20T08:58:09.072Z,6.63
2018-07-20T09:00:37.973Z,6.60
2018-07-20T09:03:06.920Z,6.40
2018-07-20T09:05:35.798Z,6.10
2018-07-20T09:08:04.732Z,6.10
2018-07-20T09:10:33.611Z,5.83
2018-07-20T09:13:02.452Z,6.23
2018-07-20T09:15:31.394Z,5.40
2018-07-20T09:18:00.340Z,5.80
2018-07-20T09:20:29.281Z,5.40
2018-07-20T09:22:58.401Z,5.33
2018-07-20T09:25:27.324Z,5.40
2018-07-20T09:27:56.270Z,5.60
2018-07-20T09:30:25.208Z,5.97
2018-07-20T09:32:54.131Z,5.50
2018-07-20T09:35:23.077Z,5.17
2018-07-20T09:37:52.044Z,5.30
2018-07-20T09:40:20.909Z,5.83
2018-07-20T09:42:49.868Z,6.27
2018-07-20T09:45:21.112Z,5.87
2018-07-20T09:47:50.012Z,5.60
2018-07-20T09:50:18.961Z,5.10
2018-07-20T09:52:47.912Z,4.97
2018-07-20T09:55:17.139Z,4.80
2018-07-20T09:57:46.187Z,4.80
2018-07-20T10:00:20.142Z,5.20
2018-07-20T10:02:49.070Z,4.57
2018-07-20T10:25:58.450Z,4.50
2018-07-20T10:28:27.326Z,5.37
2018-07-20T10:30:56.216Z,5.77
2018-07-20T10:33:25.091Z,5.10
2018-07-20T10:35:54.005Z,5.00
2018-07-20T10:38:22.867Z,5.53
2018-07-20T10:40:51.912Z,5.17
2018-07-20T10:43:20.823Z,5.60
2018-07-20T10:45:49.744Z,5.13
2018-07-20T10:48:18.709Z,9.00
2018-07-20T10:50:47.589Z,5.27
2018-07-20T10:53:16.486Z,5.17
2018-07-20T10:55:45.458Z,4.37
2018-07-20T10:58:14.335Z,5.03
2018-07-20T11:00:43.246Z,4.53
2018-07-20T11:03:12.201Z,5.07
2018-07-20T11:05:41.069Z,4.87
2018-07-20T11:08:09.896Z,5.30
2018-07-20T11:10:38.790Z,4.83
2018-07-20T11:13:07.693Z,5.33
2018-07-20T11:15:36.564Z,5.50
2018-07-20T11:18:05.639Z,5.43
2018-07-20T11:20:34.512Z,4.70
2018-07-20T11:23:03.410Z,5.00
2018-07-20T11:25:32.374Z,5.10
2018-07-20T11:28:01.236Z,5.50
2018-07-20T11:30:30.064Z,5.07
2018-07-20T11:32:59.051Z,5.40
2018-07-20T11:35:27.980Z,4.93
2018-07-20T11:37:57.974Z,5.77
2018-07-20T11:40:26.889Z,4.90
2018-07-20T11:42:55.766Z,4.70
2018-07-20T11:45:25.268Z,4.90
2018-07-20T11:47:54.111Z,6.33
2018-07-20T11:50:23.005Z,4.43
2018-07-20T11:52:51.916Z,4.60
2018-07-20T11:55:20.770Z,4.67
2018-07-20T11:57:49.639Z,5.00
2018-07-20T12:00:18.498Z,4.53
2018-07-20T12:02:47.413Z,4.90
2018-07-20T12:05:16.288Z,5.37
2018-07-20T12:07:45.111Z,4.63
2018-07-20T12:10:14.064Z,5.00
2018-07-20T12:12:42.970Z,4.33
2018-07-20T12:15:11.929Z,5.17
2018-07-20T12:17:40.852Z,4.60
2018-07-20T12:20:09.726Z,5.00
2018-07-20T12:22:38.558Z,5.80
2018-07-20T12:25:07.519Z,4.53
2018-07-20T12:27:36.424Z,4.70
2018-07-20T12:30:06.233Z,3.83
2018-07-20T12:32:35.213Z,4.87
2018-07-20T12:35:04.209Z,9.47
2018-07-20T12:37:33.157Z,4.30
2018-07-20T12:40:02.183Z,4.50
2018-07-20T12:42:31.140Z,4.50
2018-07-20T12:45:00.096Z,4.57
2018-07-20T12:47:29.084Z,4.60
2018-07-20T12:49:58.020Z,8.03
2018-07-20T12:52:27.010Z,3.93
2018-07-20T12:54:55.993Z,4.00
2018-07-20T12:57:24.867Z,4.23
2018-07-20T12:59:53.893Z,4.00
2018-07-20T13:02:22.808Z,6.73
2018-07-20T13:04:51.668Z,4.23
2018-07-20T13:07:20.485Z,4.70
2018-07-20T13:09:49.400Z,3.60
2018-07-20T13:12:18.306Z,4.30
2018-07-20T13:14:47.159Z,4.67
2018-07-20T13:17:16.246Z,4.73
2018-07-20T13:19:45.300Z,4.40
2018-07-20T13:22:14.257Z,5.00
2018-07-20T13:24:43.270Z,4.10
2018-07-20T13:27:12.185Z,4.10
2018-07-20T13:29:41.133Z,4.70
2018-07-20T13:32:10.087Z,4.40
2018-07-20T13:34:39.006Z,5.37
2018-07-20T13:37:07.947Z,4.20
2018-07-20T13:39:36.873Z,5.53
2018-07-20T13:42:05.853Z,5.27
2018-07-20T13:44:34.796Z,4.40
2018-07-20T13:47:03.813Z,5.20
2018-07-20T13:49:32.722Z,6.23
2018-07-20T13:52:01.838Z,5.17
2018-07-20T13:54:30.823Z,4.20
2018-07-20T13:56:59.685Z,4.27
2018-07-20T13:59:28.545Z,4.10
2018-07-20T14:01:57.502Z,4.60
2018-07-20T14:04:26.387Z,4.00
2018-07-20T14:06:55.451Z,3.80
2018-07-20T14:09:24.515Z,4.30
2018-07-20T14:11:53.556Z,4.50
2018-07-20T14:14:22.560Z,4.40
2018-07-20T14:16:51.516Z,4.60
2018-07-20T14:19:20.630Z,7.30
2018-07-20T14:21:50.267Z,4.93
2018-07-20T14:24:19.537Z,4.40
2018-07-20T14:26:48.451Z,7.97
2018-07-20T14:29:17.370Z,4.37
2018-07-20T14:31:46.731Z,3.87
2018-07-20T14:34:15.838Z,3.73
2018-07-20T14:36:44.802Z,4.40
2018-07-20T14:39:14.413Z,4.03
2018-07-20T14:41:43.455Z,3.47
2018-07-20T14:44:12.508Z,4.13
2018-07-20T14:46:41.502Z,3.90
2018-07-20T14:49:10.333Z,4.33
2018-07-20T14:51:39.355Z,4.67
2018-07-20T14:54:08.357Z,4.17
2018-07-20T14:56:37.234Z,4.03
2018-07-20T14:59:06.196Z,3.70
2018-07-20T15:01:35.151Z,4.10
2018-07-20T15:04:04.141Z,4.50
2018-07-20T15:06:33.121Z,5.23
2018-07-20T15:09:02.061Z,4.60
2018-07-20T15:11:31.052Z,4.60
2018-07-20T15:14:00.000Z,6.63
2018-07-20T15:16:28.970Z,5.50
2018-07-20T15:18:57.955Z,5.23
2018-07-20T15:21:26.976Z,4.43
2018-07-20T15:23:55.944Z,4.13
2018-07-20T15:26:24.843Z,4.50
2018-07-20T15:28:53.816Z,5.53
2018-07-20T15:31:22.912Z,6.37
2018-07-20T15:33:51.886Z,4.23
2018-07-20T15:36:20.741Z,5.03
2018-07-20T15:38:49.866Z,4.40
2018-07-20T15:41:18.975Z,4.73
2018-07-20T15:43:47.981Z,4.37
2018-07-20T15:46:17.114Z,4.40
2018-07-20T15:48:46.039Z,4.60
2018-07-20T15:51:14.893Z,4.73
2018-07-20T15:53:43.847Z,4.97
2018-07-20T15:56:12.774Z,5.00
2018-07-20T15:58:41.678Z,4.60
2018-07-20T16:01:10.767Z,4.40
2018-07-20T16:03:39.715Z,8.30
2018-07-20T16:06:08.640Z,4.63
2018-07-20T16:08:37.708Z,7.30
2018-07-20T16:11:06.573Z,6.20
2018-07-20T16:13:35.467Z,4.47
2018-07-20T16:16:04.424Z,4.73
2018-07-20T16:18:33.307Z,4.50
2018-07-20T16:21:02.445Z,4.47
2018-07-20T16:23:31.433Z,4.30
2018-07-20T16:26:00.516Z,4.67
2018-07-20T16:28:29.355Z,5.63
2018-07-20T16:30:58.312Z,4.27
2018-07-20T16:33:27.269Z,4.50
2018-07-20T16:35:56.181Z,5.20
2018-07-20T16:38:25.203Z,6.73
2018-07-20T16:40:54.133Z,4.83
2018-07-20T16:43:23.007Z,4.73
2018-07-20T16:45:52.027Z,4.30
2018-07-20T16:48:21.098Z,4.00
2018-07-20T16:50:50.213Z,4.37
2018-07-20T16:53:19.143Z,4.33
2018-07-20T16:55:48.186Z,4.20
2018-07-20T16:58:17.144Z,4.27
2018-07-20T17:00:46.200Z,4.00
2018-07-20T17:03:15.135Z,4.23
2018-07-20T17:05:44.099Z,4.23
2018-07-20T17:08:13.083Z,4.00
2018-07-20T17:10:42.242Z,4.80
2018-07-20T17:13:11.264Z,4.13
2018-07-20T17:15:40.225Z,4.23
2018-07-20T17:18:09.189Z,4.40
2018-07-20T17:20:38.129Z,4.07
2018-07-20T17:23:07.287Z,3.77
2018-07-20T17:25:36.367Z,4.10
2018-07-20T17:28:05.363Z,7.57
2018-07-20T17:30:34.378Z,4.27
2018-07-20T17:33:03.399Z,4.50
2018-07-20T17:35:32.388Z,4.77
2018-07-20T17:38:01.334Z,5.57
2018-07-20T17:40:30.245Z,4.47
2018-07-20T17:42:59.256Z,4.60
2018-07-20T17:45:28.194Z,12.80
2018-07-20T17:47:57.111Z,4.40
2018-07-20T17:50:26.054Z,4.20
2018-07-20T17:52:55.008Z,4.10
2018-07-20T17:55:24.951Z,4.43
2018-07-20T17:57:53.910Z,6.10
2018-07-20T18:00:22.899Z,4.50
2018-07-20T18:02:51.883Z,3.97
2018-07-20T18:05:20.818Z,4.03
2018-07-20T18:07:51.432Z,4.47
2018-07-20T18:10:20.415Z,4.57
2018-07-20T18:12:49.369Z,4.37
2018-07-20T18:15:18.417Z,4.30
2018-07-20T18:17:47.368Z,4.70
2018-07-20T18:20:16.231Z,4.63
2018-07-20T18:22:45.148Z,4.50
2018-07-20T18:25:14.924Z,4.60
2018-07-20T18:27:43.932Z,4.80
2018-07-20T18:30:13.011Z,4.40
2018-07-20T18:32:41.926Z,4.30
2018-07-20T18:35:10.879Z,4.97
2018-07-20T18:37:39.884Z,4.27
2018-07-20T18:40:08.797Z,4.40
2018-07-20T18:42:37.685Z,6.53
2018-07-20T18:45:07.273Z,4.77
2018-07-20T18:47:36.396Z,4.83
2018-07-20T18:50:06.486Z,5.53
2018-07-20T18:52:35.591Z,5.57
2018-07-20T18:55:04.587Z,5.33
2018-07-20T18:57:33.445Z,5.00
2018-07-20T19:00:02.422Z,6.93
2018-07-20T19:02:31.312Z,4.47
2018-07-20T19:05:00.184Z,4.60
2018-07-20T19:07:29.193Z,4.70
2018-07-20T19:09:58.129Z,4.63
2018-07-20T19:12:27.072Z,4.50
2018-07-20T19:14:56.091Z,4.70
2018-07-20T19:17:25.034Z,4.50
2018-07-20T19:19:53.988Z,4.27
2018-07-20T19:22:22.979Z,4.57
2018-07-20T19:24:51.983Z,4.70
2018-07-20T19:27:20.862Z,6.27
2018-07-20T19:29:50.018Z,4.90
2018-07-20T19:32:19.180Z,4.53
2018-07-20T19:34:48.098Z,4.07
2018-07-20T19:37:17.117Z,4.23
2018-07-20T19:39:46.097Z,4.17
2018-07-20T19:42:15.096Z,5.43
2018-07-20T19:44:44.074Z,4.90
2018-07-20T19:47:13.083Z,6.40
2018-07-20T19:49:42.140Z,4.27
2018-07-20T19:52:11.047Z,4.43
2018-07-20T19:54:40.107Z,7.67
2018-07-20T19:57:09.023Z,4.53
2018-07-20T19:59:38.014Z,4.60
2018-07-20T20:02:07.054Z,4.40
2018-07-20T20:04:36.119Z,5.37
2018-07-20T20:07:05.190Z,5.33
2018-07-20T20:09:34.150Z,4.57
2018-07-20T20:12:03.200Z,6.23
2018-07-20T20:14:32.234Z,4.47
2018-07-20T20:17:01.133Z,6.00
2018-07-20T20:19:30.073Z,4.40
2018-07-20T20:21:59.215Z,4.53
2018-07-20T20:24:28.248Z,6.47
2018-07-20T20:26:57.455Z,4.63
2018-07-20T20:29:26.516Z,4.40
2018-07-20T20:31:55.489Z,4.47
2018-07-20T20:34:24.514Z,4.83
2018-07-20T20:36:53.746Z,4.30
2018-07-20T20:39:22.638Z,4.57
2018-07-20T20:41:51.683Z,4.60
2018-07-20T20:44:21.029Z,4.50
2018-07-20T20:46:49.976Z,5.03
2018-07-20T20:49:19.003Z,4.20
2018-07-20T20:51:48.026Z,5.30
2018-07-20T20:54:17.007Z,3.97
2018-07-20T20:56:46.049Z,4.43
2018-07-20T20:59:15.019Z,4.60
2018-07-20T21:01:44.088Z,4.73
2018-07-20T21:04:13.072Z,4.47
2018-07-20T21:06:41.985Z,4.63
2018-07-20T21:09:11.087Z,4.50
2018-07-20T21:11:40.294Z,4.43
2018-07-20T21:14:09.285Z,4.07
2018-07-20T21:16:38.233Z,3.53
2018-07-20T21:19:07.342Z,4.27
2018-07-20T21:21:36.561Z,6.40
2018-07-20T21:24:05.992Z,4.00
2018-07-20T21:26:34.892Z,4.00
2018-07-20T21:29:03.919Z,4.60
2018-07-20T21:31:32.978Z,3.87
2018-07-20T21:34:02.026Z,4.33
2018-07-20T21:36:31.082Z,4.27
2018-07-20T21:39:00.164Z,3.73
2018-07-20T21:41:29.095Z,4.07
2018-07-20T21:43:58.076Z,5.57
2018-07-20T21:46:27.102Z,3.90
2018-07-20T21:48:56.019Z,4.07
2018-07-20T21:51:24.883Z,4.83
2018-07-20T21:53:53.849Z,4.17
2018-07-20T21:56:22.734Z,3.90
2018-07-20T21:58:51.645Z,4.03
2018-07-20T22:01:20.786Z,4.27
2018-07-20T22:03:49.850Z,4.40
2018-07-20T22:06:18.985Z,5.20
2018-07-20T22:08:47.978Z,4.83
2018-07-20T22:11:17.016Z,3.90
2018-07-20T22:13:46.062Z,4.43
2018-07-20T22:16:15.070Z,4.63
2018-07-20T22:18:43.977Z,4.10
2018-07-20T22:21:13.076Z,3.57
2018-07-20T22:23:42.146Z,3.80
2018-07-20T22:26:11.233Z,3.97
2018-07-20T22:28:40.259Z,4.10
2018-07-20T22:31:09.212Z,4.10
2018-07-20T22:33:38.219Z,4.87
2018-07-20T22:36:07.173Z,4.07
2018-07-20T22:38:36.309Z,4.33
2018-07-20T22:41:06.306Z,4.23
2018-07-20T22:43:35.356Z,6.40
2018-07-20T22:46:04.326Z,4.03
2018-07-20T22:48:33.407Z,3.80
2018-07-20T22:51:02.544Z,4.40
2018-07-20T22:53:31.504Z,4.20
2018-07-20T22:56:00.417Z,3.90
2018-07-20T22:58:29.457Z,3.90
2018-07-20T23:00:58.432Z,4.30
2018-07-20T23:03:27.453Z,4.10
2018-07-20T23:05:56.482Z,5.07
2018-07-20T23:08:25.428Z,4.90
2018-07-20T23:10:54.431Z,4.30
2018-07-20T23:13:23.434Z,6.10
2018-07-20T23:15:52.335Z,4.17
2018-07-20T23:18:21.312Z,5.50
2018-07-20T23:20:50.305Z,4.20
2018-07-20T23:23:19.231Z,5.60
2018-07-20T23:25:48.126Z,4.30
2018-07-20T23:28:17.044Z,4.33
2018-07-20T23:30:45.951Z,3.77
2018-07-20T23:33:15.008Z,4.20
2018-07-20T23:35:44.005Z,4.33
2018-07-20T23:38:13.017Z,3.80
2018-07-20T23:40:41.913Z,4.50
2018-07-20T23:43:10.926Z,4.17
2018-07-20T23:45:39.804Z,3.70
2018-07-20T23:48:08.734Z,4.60
2018-07-20T23:50:38.062Z,4.30
2018-07-20T23:53:07.309Z,3.77
2018-07-20T23:55:36.181Z,3.77
2018-07-20T23:58:05.120Z,4.10
